sensor_id;sensor_type;location;lat;lon;timestamp;P1;durP1;ratioP1;P2;durP2;ratioP2
11893;SDS011;6006;49.696;8.662;2023-05-10T00:00:39;1.33;;;1.10;;
11893;SDS011;6006;49.696;8.662;2023-05-10T00:03:05;1.00;;;1.00;;
11893;SDS011;6006;49.696;8.662;2023-05-10T00:05:34;1.37;;;1.27;;
11893;SDS011;6006;49.696;8.662;2023-05-10T00:08:01;1.73;;;1.13;;
11893;SDS011;6006;49.696;8.662;2023-05-10T00:10:28;1.30;;;1.30;;
11893;SDS011;6006;49.696;8.662;2023-05-10T00:12:54;1.37;;;1.27;;
11893;SDS011;6006;49.696;8.662;2023-05-10T00:15:21;2.53;;;1.10;;
11893;SDS011;6006;49.696;8.662;2023-05-10T00:17:48;1.77;;;1.50;;
11893;SDS011;6006;49.696;8.662;2023-05-10T00:20:15;1.60;;;1.50;;
11893;SDS011;6006;49.696;8.662;2023-05-10T00:22:43;1.40;;;1.30;;
11893;SDS011;6006;49.696;8.662;2023-05-10T00:25:10;1.07;;;1.07;;
11893;SDS011;6006;49.696;8.662;2023-05-10T00:27:37;2.63;;;1.60;;
11893;SDS011;6006;49.696;8.662;2023-05-10T00:30:04;1.60;;;1.50;;
11893;SDS011;6006;49.696;8.662;2023-05-10T00:32:32;2.67;;;1.80;;
11893;SDS011;6006;49.696;8.662;2023-05-10T00:34:59;1.40;;;1.30;;
11893;SDS011;6006;49.696;8.662;2023-05-10T00:37:25;1.83;;;1.50;;
11893;SDS011;6006;49.696;8.662;2023-05-10T00:39:54;1.40;;;1.30;;
11893;SDS011;6006;49.696;8.662;2023-05-10T00:42:21;2.53;;;1.43;;
11893;SDS011;6006;49.696;8.662;2023-05-10T00:44:48;1.87;;;1.77;;
11893;SDS011;6006;49.696;8.662;2023-05-10T00:47:15;1.53;;;1.43;;
11893;SDS011;6006;49.696;8.662;2023-05-10T00:49:42;1.60;;;1.50;;
11893;SDS011;6006;49.696;8.662;2023-05-10T00:52:10;3.53;;;1.87;;
11893;SDS011;6006;49.696;8.662;2023-05-10T00:54:37;3.70;;;2.00;;
11893;SDS011;6006;49.696;8.662;2023-05-10T00:57:05;2.27;;;1.77;;
11893;SDS011;6006;49.696;8.662;2023-05-10T00:59:32;1.77;;;1.50;;
11893;SDS011;6006;49.696;8.662;2023-05-10T01:01:59;2.20;;;2.00;;
11893;SDS011;6006;49.696;8.662;2023-05-10T01:04:25;2.50;;;1.70;;
11893;SDS011;6006;49.696;8.662;2023-05-10T01:06:53;1.83;;;1.73;;
11893;SDS011;6006;49.696;8.662;2023-05-10T01:09:20;2.40;;;1.87;;
11893;SDS011;6006;49.696;8.662;2023-05-10T01:11:48;1.93;;;1.83;;
11893;SDS011;6006;49.696;8.662;2023-05-10T01:14:17;2.00;;;1.67;;
11893;SDS011;6006;49.696;8.662;2023-05-10T01:16:45;1.83;;;1.73;;
11893;SDS011;6006;49.696;8.662;2023-05-10T01:19:17;1.63;;;1.53;;
11893;SDS011;6006;49.696;8.662;2023-05-10T01:21:49;1.80;;;1.70;;
11893;SDS011;6006;49.696;8.662;2023-05-10T01:27:38;1.80;;;1.60;;
11893;SDS011;6006;49.696;8.662;2023-05-10T01:33:23;1.60;;;1.50;;
11893;SDS011;6006;49.696;8.662;2023-05-10T01:35:54;3.23;;;1.60;;
11893;SDS011;6006;49.696;8.662;2023-05-10T01:38:29;1.57;;;1.30;;
11893;SDS011;6006;49.696;8.662;2023-05-10T01:41:10;1.67;;;1.57;;
11893;SDS011;6006;49.696;8.662;2023-05-10T01:43:45;2.10;;;1.90;;
11893;SDS011;6006;49.696;8.662;2023-05-10T01:46:20;1.60;;;1.50;;
11893;SDS011;6006;49.696;8.662;2023-05-10T01:48:55;4.30;;;1.83;;
11893;SDS011;6006;49.696;8.662;2023-05-10T01:51:25;2.07;;;1.97;;
11893;SDS011;6006;49.696;8.662;2023-05-10T01:53:58;1.63;;;1.53;;
11893;SDS011;6006;49.696;8.662;2023-05-10T01:56:28;2.30;;;2.10;;
11893;SDS011;6006;49.696;8.662;2023-05-10T01:58:58;1.90;;;1.73;;
11893;SDS011;6006;49.696;8.662;2023-05-10T02:01:29;4.33;;;1.80;;
11893;SDS011;6006;49.696;8.662;2023-05-10T02:03:58;2.63;;;2.00;;
11893;SDS011;6006;49.696;8.662;2023-05-10T02:06:26;1.90;;;1.70;;
11893;SDS011;6006;49.696;8.662;2023-05-10T02:08:54;2.40;;;2.20;;
11893;SDS011;6006;49.696;8.662;2023-05-10T02:11:22;2.00;;;1.90;;
11893;SDS011;6006;49.696;8.662;2023-05-10T02:13:50;2.40;;;2.20;;
11893;SDS011;6006;49.696;8.662;2023-05-10T02:16:19;2.30;;;2.10;;
11893;SDS011;6006;49.696;8.662;2023-05-10T02:18:50;2.40;;;2.30;;
11893;SDS011;6006;49.696;8.662;2023-05-10T02:21:19;2.20;;;2.10;;
11893;SDS011;6006;49.696;8.662;2023-05-10T02:23:47;2.00;;;1.90;;
11893;SDS011;6006;49.696;8.662;2023-05-10T02:26:16;2.60;;;2.40;;
11893;SDS011;6006;49.696;8.662;2023-05-10T02:28:46;2.30;;;2.10;;
11893;SDS011;6006;49.696;8.662;2023-05-10T02:31:15;2.50;;;2.30;;
11893;SDS011;6006;49.696;8.662;2023-05-10T02:33:42;4.10;;;2.10;;
11893;SDS011;6006;49.696;8.662;2023-05-10T02:36:10;2.43;;;2.23;;
11893;SDS011;6006;49.696;8.662;2023-05-10T02:38:40;3.70;;;1.97;;
11893;SDS011;6006;49.696;8.662;2023-05-10T02:41:07;2.87;;;2.13;;
11893;SDS011;6006;49.696;8.662;2023-05-10T02:43:35;2.43;;;2.20;;
11893;SDS011;6006;49.696;8.662;2023-05-10T02:46:05;3.47;;;2.20;;
11893;SDS011;6006;49.696;8.662;2023-05-10T02:48:32;2.60;;;2.40;;
11893;SDS011;6006;49.696;8.662;2023-05-10T02:51:00;2.10;;;2.00;;
11893;SDS011;6006;49.696;8.662;2023-05-10T02:53:31;2.40;;;2.20;;
11893;SDS011;6006;49.696;8.662;2023-05-10T02:56:04;1.93;;;1.83;;
11893;SDS011;6006;49.696;8.662;2023-05-10T02:58:36;2.53;;;2.00;;
11893;SDS011;6006;49.696;8.662;2023-05-10T03:01:02;1.90;;;1.80;;
11893;SDS011;6006;49.696;8.662;2023-05-10T03:03:30;3.87;;;2.23;;
11893;SDS011;6006;49.696;8.662;2023-05-10T03:05:57;2.47;;;2.03;;
11893;SDS011;6006;49.696;8.662;2023-05-10T03:08:24;2.20;;;2.00;;
11893;SDS011;6006;49.696;8.662;2023-05-10T03:10:55;2.00;;;1.90;;
11893;SDS011;6006;49.696;8.662;2023-05-10T03:13:33;2.07;;;1.97;;
11893;SDS011;6006;49.696;8.662;2023-05-10T03:16:09;1.93;;;1.83;;
11893;SDS011;6006;49.696;8.662;2023-05-10T03:18:42;1.77;;;1.67;;
11893;SDS011;6006;49.696;8.662;2023-05-10T03:21:14;3.30;;;2.17;;
11893;SDS011;6006;49.696;8.662;2023-05-10T03:23:47;2.30;;;2.10;;
11893;SDS011;6006;49.696;8.662;2023-05-10T03:26:20;2.97;;;2.30;;
11893;SDS011;6006;49.696;8.662;2023-05-10T03:28:50;2.33;;;2.20;;
11893;SDS011;6006;49.696;8.662;2023-05-10T03:31:18;2.73;;;2.30;;
11893;SDS011;6006;49.696;8.662;2023-05-10T03:33:45;3.57;;;2.40;;
11893;SDS011;6006;49.696;8.662;2023-05-10T03:36:13;2.70;;;2.40;;
11893;SDS011;6006;49.696;8.662;2023-05-10T03:38:40;4.60;;;2.83;;
11893;SDS011;6006;49.696;8.662;2023-05-10T03:41:07;2.63;;;2.43;;
11893;SDS011;6006;49.696;8.662;2023-05-10T03:43:35;3.00;;;2.80;;
11893;SDS011;6006;49.696;8.662;2023-05-10T03:46:02;4.13;;;3.07;;
11893;SDS011;6006;49.696;8.662;2023-05-10T03:48:29;3.33;;;3.03;;
11893;SDS011;6006;49.696;8.662;2023-05-10T03:50:57;3.83;;;3.33;;
11893;SDS011;6006;49.696;8.662;2023-05-10T03:53:24;3.60;;;3.30;;
11893;SDS011;6006;49.696;8.662;2023-05-10T03:55:51;4.10;;;3.30;;
11893;SDS011;6006;49.696;8.662;2023-05-10T03:58:18;3.23;;;3.03;;
11893;SDS011;6006;49.696;8.662;2023-05-10T04:00:46;3.53;;;3.10;;
11893;SDS011;6006;49.696;8.662;2023-05-10T04:03:13;4.60;;;3.60;;
11893;SDS011;6006;49.696;8.662;2023-05-10T04:05:40;4.07;;;3.20;;
11893;SDS011;6006;49.696;8.662;2023-05-10T04:08:07;4.70;;;3.17;;
11893;SDS011;6006;49.696;8.662;2023-05-10T04:10:34;3.27;;;3.07;;
11893;SDS011;6006;49.696;8.662;2023-05-10T04:13:00;3.50;;;3.20;;
11893;SDS011;6006;49.696;8.662;2023-05-10T04:15:27;3.23;;;2.97;;
11893;SDS011;6006;49.696;8.662;2023-05-10T04:17:56;3.60;;;3.30;;
11893;SDS011;6006;49.696;8.662;2023-05-10T04:20:22;3.53;;;3.23;;
11893;SDS011;6006;49.696;8.662;2023-05-10T04:22:49;3.23;;;3.03;;
11893;SDS011;6006;49.696;8.662;2023-05-10T04:25:16;4.00;;;2.97;;
11893;SDS011;6006;49.696;8.662;2023-05-10T04:27:43;3.80;;;3.20;;
11893;SDS011;6006;49.696;8.662;2023-05-10T04:30:10;3.87;;;3.17;;
11893;SDS011;6006;49.696;8.662;2023-05-10T04:32:37;3.40;;;3.10;;
11893;SDS011;6006;49.696;8.662;2023-05-10T04:35:05;4.07;;;3.27;;
11893;SDS011;6006;49.696;8.662;2023-05-10T04:37:34;3.57;;;3.17;;
11893;SDS011;6006;49.696;8.662;2023-05-10T04:40:01;3.40;;;2.90;;
11893;SDS011;6006;49.696;8.662;2023-05-10T04:42:29;3.90;;;3.50;;
11893;SDS011;6006;49.696;8.662;2023-05-10T04:44:55;3.87;;;3.53;;
11893;SDS011;6006;49.696;8.662;2023-05-10T04:47:22;3.20;;;3.00;;
11893;SDS011;6006;49.696;8.662;2023-05-10T04:49:49;3.87;;;3.57;;
11893;SDS011;6006;49.696;8.662;2023-05-10T04:52:17;6.53;;;3.30;;
11893;SDS011;6006;49.696;8.662;2023-05-10T04:54:44;4.47;;;2.97;;
11893;SDS011;6006;49.696;8.662;2023-05-10T04:57:11;4.03;;;3.13;;
11893;SDS011;6006;49.696;8.662;2023-05-10T04:59:37;4.13;;;3.70;;
11893;SDS011;6006;49.696;8.662;2023-05-10T05:02:04;6.97;;;3.77;;
11893;SDS011;6006;49.696;8.662;2023-05-10T05:04:31;3.40;;;3.10;;
11893;SDS011;6006;49.696;8.662;2023-05-10T05:06:58;5.13;;;3.40;;
11893;SDS011;6006;49.696;8.662;2023-05-10T05:09:26;3.40;;;3.10;;
11893;SDS011;6006;49.696;8.662;2023-05-10T05:11:53;3.30;;;3.10;;
11893;SDS011;6006;49.696;8.662;2023-05-10T05:14:20;3.07;;;2.87;;
11893;SDS011;6006;49.696;8.662;2023-05-10T05:16:47;5.77;;;3.43;;
11893;SDS011;6006;49.696;8.662;2023-05-10T05:19:14;4.20;;;3.80;;
11893;SDS011;6006;49.696;8.662;2023-05-10T05:21:41;3.97;;;3.60;;
11893;SDS011;6006;49.696;8.662;2023-05-10T05:24:08;3.77;;;3.47;;
11893;SDS011;6006;49.696;8.662;2023-05-10T05:26:37;3.67;;;3.37;;
11893;SDS011;6006;49.696;8.662;2023-05-10T05:29:04;4.27;;;3.87;;
11893;SDS011;6006;49.696;8.662;2023-05-10T05:31:31;3.80;;;3.20;;
11893;SDS011;6006;49.696;8.662;2023-05-10T05:33:58;4.20;;;3.80;;
11893;SDS011;6006;49.696;8.662;2023-05-10T05:36:24;3.80;;;3.50;;
11893;SDS011;6006;49.696;8.662;2023-05-10T05:38:51;3.37;;;3.07;;
11893;SDS011;6006;49.696;8.662;2023-05-10T05:41:18;3.70;;;3.40;;
11893;SDS011;6006;49.696;8.662;2023-05-10T05:43:47;3.00;;;2.70;;
11893;SDS011;6006;49.696;8.662;2023-05-10T05:46:14;4.40;;;3.93;;
11893;SDS011;6006;49.696;8.662;2023-05-10T05:48:41;4.07;;;3.57;;
11893;SDS011;6006;49.696;8.662;2023-05-10T05:51:08;4.50;;;3.20;;
11893;SDS011;6006;49.696;8.662;2023-05-10T05:53:35;3.10;;;2.90;;
11893;SDS011;6006;49.696;8.662;2023-05-10T05:56:02;3.27;;;3.07;;
11893;SDS011;6006;49.696;8.662;2023-05-10T05:58:29;3.30;;;3.07;;
11893;SDS011;6006;49.696;8.662;2023-05-10T06:00:57;3.73;;;3.33;;
11893;SDS011;6006;49.696;8.662;2023-05-10T06:03:24;3.20;;;3.00;;
11893;SDS011;6006;49.696;8.662;2023-05-10T06:05:51;3.03;;;2.87;;
11893;SDS011;6006;49.696;8.662;2023-05-10T06:08:18;4.37;;;3.67;;
11893;SDS011;6006;49.696;8.662;2023-05-10T06:10:45;4.37;;;3.20;;
11893;SDS011;6006;49.696;8.662;2023-05-10T06:13:12;3.33;;;3.03;;
11893;SDS011;6006;49.696;8.662;2023-05-10T06:15:38;4.20;;;3.37;;
11893;SDS011;6006;49.696;8.662;2023-05-10T06:18:07;4.17;;;3.77;;
11893;SDS011;6006;49.696;8.662;2023-05-10T06:20:33;4.83;;;3.17;;
11893;SDS011;6006;49.696;8.662;2023-05-10T06:23:00;3.87;;;3.13;;
11893;SDS011;6006;49.696;8.662;2023-05-10T06:25:28;3.80;;;2.90;;
11893;SDS011;6006;49.696;8.662;2023-05-10T06:27:55;6.23;;;3.10;;
11893;SDS011;6006;49.696;8.662;2023-05-10T06:30:23;4.03;;;3.43;;
11893;SDS011;6006;49.696;8.662;2023-05-10T06:32:53;4.47;;;3.50;;
11893;SDS011;6006;49.696;8.662;2023-05-10T06:35:22;4.20;;;3.83;;
11893;SDS011;6006;49.696;8.662;2023-05-10T06:37:49;5.53;;;3.90;;
11893;SDS011;6006;49.696;8.662;2023-05-10T06:40:16;3.70;;;3.40;;
11893;SDS011;6006;49.696;8.662;2023-05-10T06:42:43;3.93;;;3.63;;
11893;SDS011;6006;49.696;8.662;2023-05-10T06:45:11;3.73;;;3.20;;
11893;SDS011;6006;49.696;8.662;2023-05-10T06:47:38;3.50;;;3.20;;
11893;SDS011;6006;49.696;8.662;2023-05-10T06:50:06;3.43;;;3.17;;
11893;SDS011;6006;49.696;8.662;2023-05-10T06:52:35;3.88;;;3.40;;
11893;SDS011;6006;49.696;8.662;2023-05-10T06:55:02;4.57;;;3.15;;
11893;SDS011;6006;49.696;8.662;2023-05-10T06:57:29;5.10;;;3.15;;
11893;SDS011;6006;49.696;8.662;2023-05-10T06:59:56;3.85;;;3.30;;
11893;SDS011;6006;49.696;8.662;2023-05-10T07:02:23;3.72;;;3.42;;
11893;SDS011;6006;49.696;8.662;2023-05-10T07:04:50;3.20;;;2.95;;
11893;SDS011;6006;49.696;8.662;2023-05-10T07:07:17;3.58;;;3.20;;
11893;SDS011;6006;49.696;8.662;2023-05-10T07:09:45;4.50;;;3.13;;
11893;SDS011;6006;49.696;8.662;2023-05-10T07:12:12;3.55;;;3.25;;
11893;SDS011;6006;49.696;8.662;2023-05-10T07:14:39;3.75;;;2.90;;
11893;SDS011;6006;49.696;8.662;2023-05-10T07:17:06;3.70;;;3.10;;
11893;SDS011;6006;49.696;8.662;2023-05-10T07:19:33;3.30;;;3.00;;
11893;SDS011;6006;49.696;8.662;2023-05-10T07:22:00;3.00;;;2.70;;
11893;SDS011;6006;49.696;8.662;2023-05-10T07:24:27;5.20;;;3.00;;
11893;SDS011;6006;49.696;8.662;2023-05-10T07:26:55;4.43;;;3.10;;
11893;SDS011;6006;49.696;8.662;2023-05-10T07:29:22;3.60;;;3.30;;
11893;SDS011;6006;49.696;8.662;2023-05-10T07:31:49;3.25;;;3.05;;
11893;SDS011;6006;49.696;8.662;2023-05-10T07:34:15;3.50;;;3.20;;
11893;SDS011;6006;49.696;8.662;2023-05-10T07:36:42;3.65;;;3.15;;
11893;SDS011;6006;49.696;8.662;2023-05-10T07:39:09;4.03;;;3.72;;
11893;SDS011;6006;49.696;8.662;2023-05-10T07:41:36;2.95;;;2.65;;
11893;SDS011;6006;49.696;8.662;2023-05-10T07:44:05;3.85;;;3.05;;
11893;SDS011;6006;49.696;8.662;2023-05-10T07:46:32;4.15;;;3.45;;
11893;SDS011;6006;49.696;8.662;2023-05-10T07:48:59;3.60;;;3.30;;
11893;SDS011;6006;49.696;8.662;2023-05-10T07:51:27;4.28;;;3.20;;
11893;SDS011;6006;49.696;8.662;2023-05-10T07:53:53;4.68;;;3.90;;
11893;SDS011;6006;49.696;8.662;2023-05-10T07:56:21;4.03;;;3.63;;
11893;SDS011;6006;49.696;8.662;2023-05-10T07:58:50;4.03;;;3.30;;
11893;SDS011;6006;49.696;8.662;2023-05-10T08:01:18;4.03;;;3.72;;
11893;SDS011;6006;49.696;8.662;2023-05-10T08:03:45;4.03;;;3.72;;
11893;SDS011;6006;49.696;8.662;2023-05-10T08:06:12;4.28;;;3.92;;
11893;SDS011;6006;49.696;8.662;2023-05-10T08:08:39;5.72;;;3.38;;
11893;SDS011;6006;49.696;8.662;2023-05-10T08:11:06;5.03;;;3.40;;
11893;SDS011;6006;49.696;8.662;2023-05-10T08:13:32;3.95;;;3.65;;
11893;SDS011;6006;49.696;8.662;2023-05-10T08:15:59;6.88;;;3.80;;
11893;SDS011;6006;49.696;8.662;2023-05-10T08:18:27;3.60;;;3.30;;
11893;SDS011;6006;49.696;8.662;2023-05-10T08:20:54;3.03;;;2.83;;
11893;SDS011;6006;49.696;8.662;2023-05-10T08:23:21;3.85;;;3.38;;
11893;SDS011;6006;49.696;8.662;2023-05-10T08:25:48;3.53;;;3.22;;
11893;SDS011;6006;49.696;8.662;2023-05-10T08:28:15;3.83;;;3.42;;
11893;SDS011;6006;49.696;8.662;2023-05-10T08:30:42;3.22;;;3.03;;
11893;SDS011;6006;49.696;8.662;2023-05-10T08:33:08;3.80;;;3.50;;
11893;SDS011;6006;49.696;8.662;2023-05-10T08:35:36;3.08;;;2.75;;
11893;SDS011;6006;49.696;8.662;2023-05-10T08:38:03;2.78;;;2.58;;
11893;SDS011;6006;49.696;8.662;2023-05-10T08:40:30;2.22;;;2.13;;
11893;SDS011;6006;49.696;8.662;2023-05-10T08:42:58;2.88;;;2.67;;
11893;SDS011;6006;49.696;8.662;2023-05-10T08:45:32;1.75;;;1.65;;
11893;SDS011;6006;49.696;8.662;2023-05-10T08:47:59;2.35;;;1.77;;
11893;SDS011;6006;49.696;8.662;2023-05-10T08:50:28;1.40;;;1.30;;
11893;SDS011;6006;49.696;8.662;2023-05-10T08:52:59;0.90;;;0.90;;
11893;SDS011;6006;49.696;8.662;2023-05-10T08:55:29;2.38;;;0.98;;
11893;SDS011;6006;49.696;8.662;2023-05-10T08:57:58;1.98;;;0.90;;
11893;SDS011;6006;49.696;8.662;2023-05-10T09:00:25;0.90;;;0.90;;
11893;SDS011;6006;49.696;8.662;2023-05-10T09:02:53;1.05;;;0.77;;
11893;SDS011;6006;49.696;8.662;2023-05-10T09:05:20;2.58;;;0.50;;
11893;SDS011;6006;49.696;8.662;2023-05-10T09:07:47;0.80;;;0.80;;
11893;SDS011;6006;49.696;8.662;2023-05-10T09:10:15;1.63;;;0.90;;
11893;SDS011;6006;49.696;8.662;2023-05-10T09:12:42;0.88;;;0.88;;
11893;SDS011;6006;49.696;8.662;2023-05-10T09:15:12;0.60;;;0.60;;
11893;SDS011;6006;49.696;8.662;2023-05-10T09:17:44;0.60;;;0.60;;
11893;SDS011;6006;49.696;8.662;2023-05-10T09:20:11;0.95;;;0.80;;
11893;SDS011;6006;49.696;8.662;2023-05-10T09:22:38;1.00;;;0.80;;
11893;SDS011;6006;49.696;8.662;2023-05-10T09:25:06;0.70;;;0.70;;
11893;SDS011;6006;49.696;8.662;2023-05-10T09:27:35;0.60;;;0.60;;
11893;SDS011;6006;49.696;8.662;2023-05-10T09:30:03;1.00;;;0.68;;
11893;SDS011;6006;49.696;8.662;2023-05-10T09:32:38;1.10;;;0.80;;
11893;SDS011;6006;49.696;8.662;2023-05-10T09:35:06;0.60;;;0.60;;
11893;SDS011;6006;49.696;8.662;2023-05-10T09:37:33;0.63;;;0.63;;
11893;SDS011;6006;49.696;8.662;2023-05-10T09:40:00;0.47;;;0.47;;
11893;SDS011;6006;49.696;8.662;2023-05-10T09:42:31;0.68;;;0.63;;
11893;SDS011;6006;49.696;8.662;2023-05-10T09:45:01;1.27;;;0.70;;
11893;SDS011;6006;49.696;8.662;2023-05-10T09:47:28;1.00;;;0.70;;
11893;SDS011;6006;49.696;8.662;2023-05-10T09:49:57;0.73;;;0.70;;
11893;SDS011;6006;49.696;8.662;2023-05-10T09:52:28;0.90;;;0.90;;
11893;SDS011;6006;49.696;8.662;2023-05-10T09:54:55;0.80;;;0.80;;
11893;SDS011;6006;49.696;8.662;2023-05-10T09:57:22;0.68;;;0.68;;
11893;SDS011;6006;49.696;8.662;2023-05-10T09:59:50;0.80;;;0.68;;
11893;SDS011;6006;49.696;8.662;2023-05-10T10:02:20;1.58;;;0.65;;
11893;SDS011;6006;49.696;8.662;2023-05-10T10:04:54;0.70;;;0.70;;
11893;SDS011;6006;49.696;8.662;2023-05-10T10:07:22;0.73;;;0.73;;
11893;SDS011;6006;49.696;8.662;2023-05-10T10:09:50;1.02;;;0.90;;
11893;SDS011;6006;49.696;8.662;2023-05-10T10:12:17;0.75;;;0.75;;
11893;SDS011;6006;49.696;8.662;2023-05-10T10:14:45;1.95;;;0.95;;
11893;SDS011;6006;49.696;8.662;2023-05-10T10:17:14;1.48;;;0.98;;
11893;SDS011;6006;49.696;8.662;2023-05-10T10:19:43;1.00;;;1.00;;
11893;SDS011;6006;49.696;8.662;2023-05-10T10:22:11;1.75;;;1.00;;
11893;SDS011;6006;49.696;8.662;2023-05-10T10:24:38;1.17;;;1.17;;
11893;SDS011;6006;49.696;8.662;2023-05-10T10:27:11;1.60;;;1.27;;
11893;SDS011;6006;49.696;8.662;2023-05-10T10:29:47;2.97;;;1.17;;
11893;SDS011;6006;49.696;8.662;2023-05-10T10:32:24;2.25;;;1.20;;
11893;SDS011;6006;49.696;8.662;2023-05-10T10:34:57;1.15;;;1.15;;
11893;SDS011;6006;49.696;8.662;2023-05-10T10:40:22;2.08;;;0.98;;
11893;SDS011;6006;49.696;8.662;2023-05-10T10:42:50;1.92;;;0.90;;
11893;SDS011;6006;49.696;8.662;2023-05-10T10:45:18;0.85;;;0.80;;
11893;SDS011;6006;49.696;8.662;2023-05-10T10:47:47;0.80;;;0.80;;
11893;SDS011;6006;49.696;8.662;2023-05-10T10:50:16;2.13;;;0.88;;
11893;SDS011;6006;49.696;8.662;2023-05-10T10:52:43;1.30;;;1.08;;
11893;SDS011;6006;49.696;8.662;2023-05-10T10:55:10;1.10;;;1.00;;
11893;SDS011;6006;49.696;8.662;2023-05-10T10:57:42;1.65;;;1.05;;
11893;SDS011;6006;49.696;8.662;2023-05-10T11:00:17;2.60;;;1.20;;
11893;SDS011;6006;49.696;8.662;2023-05-10T11:02:46;0.98;;;0.90;;
11893;SDS011;6006;49.696;8.662;2023-05-10T11:08:13;0.82;;;0.82;;
11893;SDS011;6006;49.696;8.662;2023-05-10T11:11:04;0.60;;;0.60;;
11893;SDS011;6006;49.696;8.662;2023-05-10T11:13:39;0.80;;;0.65;;
11893;SDS011;6006;49.696;8.662;2023-05-10T11:16:16;0.68;;;0.68;;
11893;SDS011;6006;49.696;8.662;2023-05-10T11:21:44;0.50;;;0.50;;
11893;SDS011;6006;49.696;8.662;2023-05-10T11:24:12;0.90;;;0.60;;
11893;SDS011;6006;49.696;8.662;2023-05-10T11:26:40;0.57;;;0.52;;
11893;SDS011;6006;49.696;8.662;2023-05-10T11:29:07;1.85;;;0.55;;
11893;SDS011;6006;49.696;8.662;2023-05-10T11:31:34;0.45;;;0.35;;
11893;SDS011;6006;49.696;8.662;2023-05-10T11:34:02;0.52;;;0.52;;
11893;SDS011;6006;49.696;8.662;2023-05-10T11:36:31;0.50;;;0.40;;
11893;SDS011;6006;49.696;8.662;2023-05-10T11:39:01;1.17;;;0.60;;
11893;SDS011;6006;49.696;8.662;2023-05-10T11:41:29;0.40;;;0.40;;
11893;SDS011;6006;49.696;8.662;2023-05-10T11:43:57;0.70;;;0.70;;
11893;SDS011;6006;49.696;8.662;2023-05-10T11:46:25;1.77;;;0.57;;
11893;SDS011;6006;49.696;8.662;2023-05-10T11:48:55;1.45;;;0.80;;
11893;SDS011;6006;49.696;8.662;2023-05-10T11:51:25;0.93;;;0.70;;
11893;SDS011;6006;49.696;8.662;2023-05-10T11:53:52;0.82;;;0.82;;
11893;SDS011;6006;49.696;8.662;2023-05-10T11:56:22;0.52;;;0.52;;
11893;SDS011;6006;49.696;8.662;2023-05-10T11:58:54;0.60;;;0.60;;
11893;SDS011;6006;49.696;8.662;2023-05-10T12:01:21;1.17;;;0.70;;
11893;SDS011;6006;49.696;8.662;2023-05-10T12:03:49;0.60;;;0.50;;
11893;SDS011;6006;49.696;8.662;2023-05-10T12:06:17;0.50;;;0.50;;
11893;SDS011;6006;49.696;8.662;2023-05-10T12:08:44;1.27;;;0.70;;
11893;SDS011;6006;49.696;8.662;2023-05-10T12:11:12;0.60;;;0.60;;
11893;SDS011;6006;49.696;8.662;2023-05-10T12:13:42;0.57;;;0.45;;
11893;SDS011;6006;49.696;8.662;2023-05-10T12:16:15;1.30;;;0.55;;
11893;SDS011;6006;49.696;8.662;2023-05-10T12:18:43;2.15;;;0.52;;
11893;SDS011;6006;49.696;8.662;2023-05-10T12:21:11;1.08;;;0.55;;
11893;SDS011;6006;49.696;8.662;2023-05-10T12:23:38;0.68;;;0.68;;
11893;SDS011;6006;49.696;8.662;2023-05-10T12:26:05;0.60;;;0.60;;
11893;SDS011;6006;49.696;8.662;2023-05-10T12:28:32;2.15;;;0.70;;
11893;SDS011;6006;49.696;8.662;2023-05-10T12:31:01;0.85;;;0.70;;
11893;SDS011;6006;49.696;8.662;2023-05-10T12:33:35;0.73;;;0.60;;
11893;SDS011;6006;49.696;8.662;2023-05-10T12:36:04;0.65;;;0.60;;
11893;SDS011;6006;49.696;8.662;2023-05-10T12:38:32;2.13;;;0.50;;
11893;SDS011;6006;49.696;8.662;2023-05-10T12:41:00;1.65;;;0.75;;
11893;SDS011;6006;49.696;8.662;2023-05-10T12:43:29;0.85;;;0.57;;
11893;SDS011;6006;49.696;8.662;2023-05-10T12:45:56;2.20;;;0.60;;
11893;SDS011;6006;49.696;8.662;2023-05-10T12:48:25;2.70;;;0.70;;
11893;SDS011;6006;49.696;8.662;2023-05-10T12:50:53;1.55;;;0.77;;
11893;SDS011;6006;49.696;8.662;2023-05-10T12:53:20;1.08;;;0.93;;
11893;SDS011;6006;49.696;8.662;2023-05-10T12:55:47;0.52;;;0.52;;
11893;SDS011;6006;49.696;8.662;2023-05-10T12:58:14;0.52;;;0.50;;
11893;SDS011;6006;49.696;8.662;2023-05-10T13:00:40;2.55;;;0.90;;
11893;SDS011;6006;49.696;8.662;2023-05-10T13:03:08;0.90;;;0.60;;
11893;SDS011;6006;49.696;8.662;2023-05-10T13:05:37;2.15;;;0.80;;
11893;SDS011;6006;49.696;8.662;2023-05-10T13:08:04;2.13;;;0.82;;
11893;SDS011;6006;49.696;8.662;2023-05-10T13:10:31;2.17;;;0.75;;
11893;SDS011;6006;49.696;8.662;2023-05-10T13:12:58;0.80;;;0.60;;
11893;SDS011;6006;49.696;8.662;2023-05-10T13:15:25;2.63;;;0.68;;
11893;SDS011;6006;49.696;8.662;2023-05-10T13:17:52;3.00;;;0.75;;
11893;SDS011;6006;49.696;8.662;2023-05-10T13:20:19;3.42;;;0.77;;
11893;SDS011;6006;49.696;8.662;2023-05-10T13:22:48;1.85;;;0.80;;
11893;SDS011;6006;49.696;8.662;2023-05-10T13:25:15;1.88;;;0.88;;
11893;SDS011;6006;49.696;8.662;2023-05-10T13:27:41;2.13;;;0.70;;
11893;SDS011;6006;49.696;8.662;2023-05-10T13:30:09;0.57;;;0.57;;
11893;SDS011;6006;49.696;8.662;2023-05-10T13:32:36;3.17;;;0.65;;
11893;SDS011;6006;49.696;8.662;2023-05-10T13:35:04;2.05;;;0.77;;
11893;SDS011;6006;49.696;8.662;2023-05-10T13:37:31;2.10;;;0.68;;
11893;SDS011;6006;49.696;8.662;2023-05-10T13:40:01;0.50;;;0.50;;
11893;SDS011;6006;49.696;8.662;2023-05-10T13:42:29;0.50;;;0.50;;
11893;SDS011;6006;49.696;8.662;2023-05-10T13:44:56;1.02;;;0.80;;
11893;SDS011;6006;49.696;8.662;2023-05-10T13:47:23;1.35;;;0.52;;
11893;SDS011;6006;49.696;8.662;2023-05-10T13:49:50;2.63;;;0.70;;
11893;SDS011;6006;49.696;8.662;2023-05-10T13:52:17;1.33;;;0.68;;
11893;SDS011;6006;49.696;8.662;2023-05-10T13:54:44;2.17;;;0.60;;
11893;SDS011;6006;49.696;8.662;2023-05-10T13:57:12;4.43;;;0.88;;
11893;SDS011;6006;49.696;8.662;2023-05-10T13:59:41;1.75;;;0.80;;
11893;SDS011;6006;49.696;8.662;2023-05-10T14:02:08;2.85;;;0.80;;
11893;SDS011;6006;49.696;8.662;2023-05-10T14:04:35;2.08;;;0.70;;
11893;SDS011;6006;49.696;8.662;2023-05-10T14:07:02;1.00;;;0.90;;
11893;SDS011;6006;49.696;8.662;2023-05-10T14:09:29;0.80;;;0.80;;
11893;SDS011;6006;49.696;8.662;2023-05-10T14:11:56;0.70;;;0.70;;
11893;SDS011;6006;49.696;8.662;2023-05-10T14:14:25;1.30;;;0.93;;
11893;SDS011;6006;49.696;8.662;2023-05-10T14:16:53;2.15;;;0.40;;
11893;SDS011;6006;49.696;8.662;2023-05-10T14:19:20;1.20;;;0.85;;
11893;SDS011;6006;49.696;8.662;2023-05-10T14:21:46;2.05;;;1.02;;
11893;SDS011;6006;49.696;8.662;2023-05-10T14:24:13;1.67;;;0.80;;
11893;SDS011;6006;49.696;8.662;2023-05-10T14:26:40;2.17;;;0.65;;
11893;SDS011;6006;49.696;8.662;2023-05-10T14:29:07;2.08;;;0.90;;
11893;SDS011;6006;49.696;8.662;2023-05-10T14:31:35;0.80;;;0.80;;
11893;SDS011;6006;49.696;8.662;2023-05-10T14:34:02;3.25;;;0.65;;
11893;SDS011;6006;49.696;8.662;2023-05-10T14:36:28;0.95;;;0.60;;
11893;SDS011;6006;49.696;8.662;2023-05-10T14:38:55;0.60;;;0.60;;
11893;SDS011;6006;49.696;8.662;2023-05-10T14:41:22;1.15;;;0.68;;
11893;SDS011;6006;49.696;8.662;2023-05-10T14:43:49;0.60;;;0.55;;
11893;SDS011;6006;49.696;8.662;2023-05-10T14:46:16;2.15;;;0.57;;
11893;SDS011;6006;49.696;8.662;2023-05-10T14:48:45;1.30;;;0.60;;
11893;SDS011;6006;49.696;8.662;2023-05-10T14:51:12;5.68;;;0.75;;
11893;SDS011;6006;49.696;8.662;2023-05-10T14:53:38;0.77;;;0.40;;
11893;SDS011;6006;49.696;8.662;2023-05-10T14:56:05;1.48;;;0.60;;
11893;SDS011;6006;49.696;8.662;2023-05-10T14:58:32;1.70;;;0.60;;
11893;SDS011;6006;49.696;8.662;2023-05-10T15:00:59;1.92;;;0.70;;
11893;SDS011;6006;49.696;8.662;2023-05-10T15:03:26;0.30;;;0.30;;
11893;SDS011;6006;49.696;8.662;2023-05-10T15:05:54;2.25;;;0.63;;
11893;SDS011;6006;49.696;8.662;2023-05-10T15:08:22;3.08;;;0.60;;
11893;SDS011;6006;49.696;8.662;2023-05-10T15:10:50;2.70;;;0.68;;
11893;SDS011;6006;49.696;8.662;2023-05-10T15:13:17;1.80;;;0.90;;
11893;SDS011;6006;49.696;8.662;2023-05-10T15:15:44;0.70;;;0.52;;
11893;SDS011;6006;49.696;8.662;2023-05-10T15:18:10;1.17;;;0.40;;
11893;SDS011;6006;49.696;8.662;2023-05-10T15:20:37;1.20;;;0.30;;